| time (UTC) | temp F | wind direction | speed knots | gust knots | rain 1hr in | rain 24hr in | rain mn in | humidity % | barometer mb |
| 20260510205016 | 71 | 303 | 1.7 | 4.3 | 0.00 | 0.06 | 0.00 | 65 | 1012.9 |
| 20260510204516 | 72 | 309 | 1.7 | 5.2 | 0.00 | 0.06 | 0.00 | 63 | 1012.9 |
| 20260510204016 | 72 | 314 | 1.7 | 4.3 | 0.00 | 0.06 | 0.00 | 62 | 1012.9 |
| 20260510203520 | 73 | 338 | 1.7 | 4.3 | 0.00 | 0.06 | 0.00 | 62 | 1012.9 |
| 20260510203019 | 74 | 314 | 1.7 | 5.2 | 0.00 | 0.06 | 0.00 | 60 | 1012.9 |
| 20260510202520 | 74 | 322 | 1.7 | 4.3 | 0.00 | 0.06 | 0.00 | 59 | 1012.8 |
| 20260510202019 | 75 | 322 | 1.7 | 3.5 | 0.00 | 0.06 | 0.00 | 57 | 1012.8 |
| 20260510201520 | 75 | 335 | 2.6 | 5.2 | 0.00 | 0.06 | 0.00 | 53 | 1012.8 |
| 20260510201017 | 76 | 27 | 1.7 | 5.2 | 0.00 | 0.06 | 0.00 | 55 | 1012.8 |
| 20260510200517 | 76 | 295 | 1.7 | 3.5 | 0.00 | 0.06 | 0.00 | 55 | 1012.9 |
| 20260510200017 | 76 | 350 | 1.7 | 4.3 | 0.00 | 0.06 | 0.00 | 54 | 1012.8 |
| 20260510195517 | 76 | 336 | 1.7 | 3.5 | 0.00 | 0.06 | 0.00 | 56 | 1012.9 |
| 20260510195017 | 76 | 342 | 1.7 | 4.3 | 0.00 | 0.06 | 0.00 | 57 | 1012.9 |
| 20260510194517 | 76 | 330 | 1.7 | 4.3 | 0.00 | 0.06 | 0.00 | 56 | 1012.9 |
| 20260510194018 | 76 | 306 | 1.7 | 4.3 | 0.00 | 0.06 | 0.00 | 57 | 1012.9 |
| 20260510193521 | 76 | 351 | 2.6 | 5.2 | 0.00 | 0.06 | 0.00 | 56 | 1012.9 |
| 20260510193017 | 76 | 340 | 1.7 | 5.2 | 0.00 | 0.06 | 0.00 | 56 | 1012.9 |
| 20260510192518 | 76 | 326 | 1.7 | 5.2 | 0.00 | 0.06 | 0.00 | 57 | 1013.0 |
| 20260510192018 | 75 | 297 | 1.7 | 3.5 | 0.00 | 0.06 | 0.00 | 56 | 1013.1 |
| 20260510191518 | 76 | 328 | 1.7 | 4.3 | 0.00 | 0.06 | 0.00 | 56 | 1013.0 |
| 20260510191018 | 76 | 335 | 1.7 | 4.3 | 0.00 | 0.06 | 0.00 | 57 | 1013.1 |
| 20260510190518 | 76 | 310 | 2.6 | 7.8 | 0.00 | 0.06 | 0.00 | 56 | 1013.2 |
| 20260510190018 | 76 | 335 | 1.7 | 4.3 | 0.00 | 0.06 | 0.00 | 56 | 1013.2 |
| 20260510185518 | 75 | 358 | 1.7 | 3.5 | 0.00 | 0.06 | 0.00 | 56 | 1013.1 |
| 20260510185018 | 75 | 320 | 2.6 | 4.3 | 0.00 | 0.06 | 0.00 | 57 | 1013.2 |
| 20260510184518 | 75 | 309 | 1.7 | 5.2 | 0.00 | 0.06 | 0.00 | 57 | 1013.2 |
| 20260510184015 | 75 | 333 | 1.7 | 5.2 | 0.00 | 0.06 | 0.00 | 58 | 1013.3 |
| 20260510183519 | 75 | 339 | 1.7 | 3.5 | 0.00 | 0.06 | 0.00 | 58 | 1013.2 |
| 20260510183019 | 75 | 336 | 1.7 | 5.2 | 0.00 | 0.06 | 0.00 | 57 | 1013.3 |
| 20260510182518 | 75 | 299 | 0.9 | 3.5 | 0.00 | 0.06 | 0.00 | 57 | 1013.2 |
| 20260510182019 | 76 | 321 | 1.7 | 4.3 | 0.00 | 0.06 | 0.00 | 55 | 1013.2 |
| 20260510181519 | 77 | 358 | 2.6 | 8.7 | 0.00 | 0.06 | 0.00 | 55 | 1013.2 |
| 20260510181019 | 76 | 310 | 1.7 | 4.3 | 0.00 | 0.06 | 0.00 | 56 | 1013.2 |
| 20260510180519 | 76 | 337 | 1.7 | 3.5 | 0.00 | 0.06 | 0.00 | 57 | 1013.1 |
| 20260510180019 | 76 | 323 | 1.7 | 5.2 | 0.00 | 0.06 | 0.00 | 56 | 1013.1 |
| 20260510175516 | 76 | 326 | 2.6 | 6.1 | 0.00 | 0.06 | 0.00 | 55 | 1013.1 |
| 20260510175016 | 76 | 290 | 0.9 | 3.5 | 0.00 | 0.06 | 0.00 | 57 | 1013.1 |
| 20260510174516 | 75 | 351 | 1.7 | 5.2 | 0.00 | 0.06 | 0.00 | 54 | 1013.1 |
| 20260510174017 | 75 | 356 | 2.6 | 6.1 | 0.00 | 0.06 | 0.00 | 56 | 1013.2 |
| 20260510173520 | 75 | 340 | 2.6 | 7.0 | 0.00 | 0.06 | 0.00 | 55 | 1013.2 |
| 20260510173019 | 75 | 22 | 2.6 | 7.0 | 0.00 | 0.06 | 0.00 | 55 | 1013.1 |
| 20260510172540 | 74 | 5 | 2.6 | 7.0 | 0.00 | 0.06 | 0.00 | 56 | 1013.0 |
| 20260510172020 | 74 | 5 | 3.5 | 7.0 | 0.00 | 0.06 | 0.00 | 57 | 1013.0 |
| 20260510171517 | 74 | 353 | 2.6 | 6.1 | 0.00 | 0.06 | 0.00 | 57 | 1013.0 |
| 20260510171057 | 74 | 340 | 2.6 | 7.8 | 0.00 | 0.06 | 0.00 | 58 | 1013.0 |
| 20260510170517 | 74 | 349 | 2.6 | 7.0 | 0.00 | 0.06 | 0.00 | 60 | 1013.0 |
| 20260510170017 | 74 | 137 | 1.7 | 6.1 | 0.00 | 0.06 | 0.00 | 62 | 1012.9 |
| 20260510165517 | 74 | 89 | 1.7 | 4.3 | 0.00 | 0.06 | 0.00 | 61 | 1013.0 |
| 20260510165017 | 74 | 317 | 1.7 | 3.5 | 0.00 | 0.06 | 0.00 | 63 | 1013.1 |
| 20260510164517 | 73 | 118 | 1.7 | 5.2 | 0.00 | 0.06 | 0.00 | 65 | 1013.1 |
| 20260510164017 | 72 | 319 | 1.7 | 4.3 | 0.00 | 0.06 | 0.00 | 68 | 1013.2 |
| 20260510163521 | 72 | 172 | 0.9 | 3.5 | 0.00 | 0.06 | 0.00 | 67 | 1013.2 |
| 20260510163021 | 71 | 1 | 2.6 | 5.2 | 0.00 | 0.06 | 0.00 | 68 | 1013.2 |
| 20260510162538 | 71 | 102 | 1.7 | 5.2 | 0.00 | 0.06 | 0.00 | 69 | 1013.3 |
| 20260510162018 | 71 | 338 | 1.7 | 4.3 | 0.00 | 0.06 | 0.00 | 69 | 1013.3 |
| 20260510161538 | 70 | 304 | 1.7 | 5.2 | 0.00 | 0.06 | 0.00 | 71 | 1013.3 |
| 20260510161017 | 69 | 77 | 1.7 | 5.2 | 0.00 | 0.06 | 0.00 | 72 | 1013.3 |
| 20260510160538 | 69 | 104 | 1.7 | 5.2 | 0.00 | 0.06 | 0.00 | 73 | 1013.3 |
| 20260510160018 | 69 | 122 | 1.7 | 6.1 | 0.00 | 0.06 | 0.00 | 74 | 1013.3 |
| 20260510155516 | 68 | 214 | 1.7 | 4.3 | 0.00 | 0.06 | 0.00 | 76 | 1013.4 |
| 20260510155016 | 68 | 126 | 3.5 | 6.1 | 0.00 | 0.06 | 0.00 | 75 | 1013.5 |
| 20260510154517 | 68 | 111 | 1.7 | 6.1 | 0.00 | 0.06 | 0.00 | 76 | 1013.7 |
| 20260510154036 | 67 | 14 | 1.7 | 3.5 | 0.00 | 0.06 | 0.00 | 75 | 1013.8 |
| 20260510153518 | 67 | 336 | 1.7 | 3.5 | 0.00 | 0.06 | 0.00 | 76 | 1013.7 |
| 20260510153019 | 67 | 97 | 1.7 | 4.3 | 0.00 | 0.06 | 0.00 | 76 | 1013.6 |
| 20260510152539 | 66 | 92 | 0.9 | 5.2 | 0.00 | 0.06 | 0.00 | 79 | 1013.7 |
| 20260510152017 | 66 | 15 | 1.7 | 3.5 | 0.00 | 0.06 | 0.00 | 78 | 1013.6 |
| 20260510151557 | 65 | 328 | 0.9 | 3.5 | 0.00 | 0.06 | 0.00 | 79 | 1013.7 |
| 20260510151017 | 65 | 305 | 1.7 | 3.5 | 0.00 | 0.06 | 0.00 | 79 | 1013.8 |
| 20260510150516 | 65 | 337 | 0.9 | 2.6 | 0.00 | 0.06 | 0.00 | 81 | 1013.8 |
| 20260510150036 | 64 | 138 | 1.7 | 4.3 | 0.00 | 0.06 | 0.00 | 80 | 1013.7 |
| 20260510145516 | 64 | 289 | 0.9 | 2.6 | 0.00 | 0.06 | 0.00 | 83 | 1013.7 |
| 20260510145016 | 64 | 4 | 1.7 | 3.5 | 0.00 | 0.06 | 0.00 | 82 | 1013.7 |
| 20260510144539 | 63 | 350 | 0.9 | 2.6 | 0.00 | 0.06 | 0.00 | 83 | 1013.7 |
| 20260510144018 | 63 | 308 | 0.9 | 3.5 | 0.00 | 0.06 | 0.00 | 84 | 1013.7 |
| 20260510143517 | 62 | 25 | 1.7 | 4.3 | 0.00 | 0.06 | 0.00 | 85 | 1013.8 |
| 20260510143018 | 62 | 105 | 1.7 | 4.3 | 0.00 | 0.06 | 0.00 | 86 | 1013.8 |
| 20260510142518 | 62 | 124 | 1.7 | 4.3 | 0.00 | 0.06 | 0.00 | 86 | 1013.8 |
| 20260510142017 | 61 | 256 | 0.9 | 2.6 | 0.00 | 0.06 | 0.00 | 88 | 1013.8 |
| 20260510141517 | 61 | 123 | 1.7 | 3.5 | 0.00 | 0.06 | 0.00 | 88 | 1013.7 |
| 20260510141017 | 60 | 124 | 0.9 | 3.5 | 0.00 | 0.06 | 0.00 | 87 | 1013.7 |
| 20260510140517 | 59 | 147 | 0.9 | 2.6 | 0.00 | 0.06 | 0.00 | 89 | 1013.7 |
| 20260510140017 | 59 | 155 | 0.9 | 2.6 | 0.00 | 0.06 | 0.00 | 92 | 1013.6 |
| 20260510135537 | 58 | 107 | 0.9 | 2.6 | 0.00 | 0.06 | 0.00 | 94 | 1013.6 |
| 20260510135017 | 57 | 108 | 0.9 | 1.7 | 0.00 | 0.06 | 0.00 | 96 | 1013.5 |
| 20260510134518 | 56 | 287 | 0.9 | 1.7 | 0.00 | 0.06 | 0.00 | 98 | 1013.4 |
| 20260510134039 | 56 | 230 | 0.9 | 1.7 | 0.00 | 0.06 | 0.00 | 97 | 1013.4 |
| 20260510133538 | 55 | 232 | 0.9 | 2.6 | 0.00 | 0.06 | 0.00 | 98 | 1013.3 |
| 20260510133038 | 55 | 103 | 0.9 | 2.6 | 0.00 | 0.06 | 0.00 | 100 | 1013.4 |
| 20260510132517 | 54 | 101 | 0.9 | 2.6 | 0.00 | 0.06 | 0.00 | 100 | 1013.6 |
| 20260510132039 | 54 | 247 | 0.9 | 1.7 | 0.00 | 0.06 | 0.00 | 100 | 1013.6 |
| 20260510131519 | 54 | 48 | 0.0 | 0.9 | 0.00 | 0.06 | 0.00 | 100 | 1013.6 |
| 20260510131019 | 54 | 21 | 0.0 | 0.9 | 0.00 | 0.06 | 0.00 | 100 | 1013.7 |
| 20260510130519 | 53 | 288 | 0.9 | 0.9 | 0.00 | 0.06 | 0.00 | 100 | 1013.7 |
| 20260510130019 | 53 | 273 | 0.9 | 1.7 | 0.00 | 0.06 | 0.00 | 100 | 1013.6 |
| 20260510125520 | 53 | 42 | 0.9 | 1.7 | 0.00 | 0.06 | 0.00 | 100 | 1013.6 |
| 20260510125019 | 53 | 329 | 0.9 | 1.7 | 0.00 | 0.06 | 0.00 | 100 | 1013.5 |
| 20260510124520 | 53 | 33 | 0.9 | 2.6 | 0.00 | 0.06 | 0.00 | 100 | 1013.3 |
| 20260510124020 | 53 | 207 | 1.7 | 2.6 | 0.00 | 0.06 | 0.00 | 100 | 1013.1 |
| 20260510123520 | 52 | 124 | 1.7 | 2.6 | 0.00 | 0.06 | 0.00 | 100 | 1013.1 |
| 20260510123020 | 52 | 201 | 0.9 | 1.7 | 0.00 | 0.06 | 0.00 | 100 | 1013.1 |
| 20260510122600 | 52 | 157 | 1.7 | 2.6 | 0.00 | 0.06 | 0.00 | 100 | 1013.1 |
| 20260510122020 | 52 | 125 | 0.9 | 1.7 | 0.00 | 0.06 | 0.00 | 100 | 1013.0 |
| 20260510121520 | 52 | 202 | 0.9 | 1.7 | 0.00 | 0.06 | 0.00 | 100 | 1013.0 |
| 20260510121040 | 52 | 163 | 0.9 | 2.6 | 0.00 | 0.06 | 0.00 | 100 | 1012.9 |
| 20260510120520 | 52 | 141 | 0.9 | 2.6 | 0.00 | 0.06 | 0.00 | 100 | 1013.0 |
| 20260510120020 | 52 | 162 | 0.9 | 2.6 | 0.00 | 0.06 | 0.00 | 100 | 1012.8 |
| 20260510115520 | 52 | 227 | 0.9 | 1.7 | 0.00 | 0.06 | 0.00 | 100 | 1012.7 |
| 20260510115041 | 52 | 176 | 0.9 | 1.7 | 0.00 | 0.06 | 0.00 | 100 | 1012.7 |
| 20260510114541 | 52 | 139 | 0.9 | 2.6 | 0.00 | 0.06 | 0.00 | 99 | 1012.7 |
| 20260510114021 | 52 | 136 | 1.7 | 2.6 | 0.00 | 0.06 | 0.00 | 99 | 1012.7 |
| 20260510113521 | 52 | 166 | 0.9 | 1.7 | 0.00 | 0.06 | 0.00 | 99 | 1012.7 |
| 20260510113021 | 52 | 207 | 0.9 | 1.7 | 0.00 | 0.06 | 0.00 | 99 | 1012.7 |
| 20260510112521 | 52 | 231 | 0.9 | 1.7 | 0.00 | 0.06 | 0.00 | 99 | 1012.7 |
| 20260510112021 | 51 | 140 | 0.9 | 1.7 | 0.00 | 0.06 | 0.00 | 99 | 1012.6 |
| 20260510111521 | 51 | 159 | 0.9 | 1.7 | 0.00 | 0.06 | 0.00 | 99 | 1012.6 |
| 20260510111021 | 51 | 164 | 0.9 | 2.6 | 0.00 | 0.06 | 0.00 | 99 | 1012.6 |
| 20260510110521 | 51 | 266 | 0.9 | 2.6 | 0.00 | 0.06 | 0.00 | 99 | 1012.7 |
| 20260510110042 | 51 | 247 | 0.9 | 1.7 | 0.00 | 0.06 | 0.00 | 99 | 1012.6 |
| 20260510105522 | 51 | 232 | 0.9 | 0.9 | 0.00 | 0.06 | 0.00 | 99 | 1012.4 |
| 20260510105022 | 51 | 213 | 0.9 | 0.9 | 0.00 | 0.06 | 0.00 | 99 | 1012.3 |
| 20260510104522 | 51 | 212 | 0.9 | 0.9 | 0.00 | 0.06 | 0.00 | 99 | 1012.2 |
| 20260510104022 | 51 | 152 | 0.9 | 0.9 | 0.00 | 0.06 | 0.00 | 99 | 1012.1 |
| 20260510103522 | 51 | 204 | 0.0 | 0.9 | 0.00 | 0.06 | 0.00 | 99 | 1012.1 |
| 20260510103022 | 51 | 250 | 0.9 | 1.7 | 0.00 | 0.06 | 0.00 | 99 | 1012.1 |
| 20260510102542 | 51 | 232 | 0.9 | 0.9 | 0.00 | 0.06 | 0.00 | 99 | 1012.0 |
| 20260510102022 | 51 | 234 | 1.7 | 3.5 | 0.00 | 0.06 | 0.00 | 99 | 1012.0 |
| 20260510101522 | 51 | 203 | 0.9 | 0.9 | 0.00 | 0.06 | 0.00 | 99 | 1012.0 |
| 20260510101022 | 51 | 173 | 0.9 | 1.7 | 0.00 | 0.06 | 0.00 | 99 | 1012.0 |
| 20260510100522 | 51 | 214 | 0.9 | 1.7 | 0.00 | 0.06 | 0.00 | 99 | 1012.0 |
| 20260510100022 | 51 | 181 | 0.9 | 1.7 | 0.00 | 0.06 | 0.00 | 99 | 1011.9 |
| 20260510095522 | 51 | 258 | 0.9 | 1.7 | 0.00 | 0.06 | 0.00 | 99 | 1011.9 |
| 20260510095023 | 51 | 205 | 0.9 | 0.9 | 0.00 | 0.06 | 0.00 | 99 | 1011.9 |
| 20260510094522 | 51 | 126 | 0.9 | 1.7 | 0.00 | 0.06 | 0.00 | 99 | 1011.8 |
| 20260510094023 | 51 | 146 | 0.9 | 1.7 | 0.00 | 0.06 | 0.00 | 99 | 1011.9 |
| 20260510093543 | 51 | 235 | 0.9 | 1.7 | 0.00 | 0.06 | 0.00 | 99 | 1011.9 |
| 20260510093023 | 50 | 146 | 0.9 | 0.9 | 0.00 | 0.06 | 0.00 | 99 | 1012.0 |
| 20260510092523 | 50 | 240 | 0.9 | 2.6 | 0.00 | 0.06 | 0.00 | 99 | 1011.9 |
| 20260510092043 | 50 | 223 | 0.9 | 1.7 | 0.00 | 0.06 | 0.00 | 99 | 1012.0 |
| 20260510091523 | 50 | 237 | 0.9 | 1.7 | 0.00 | 0.06 | 0.00 | 99 | 1012.0 |
| 20260510091023 | 50 | 226 | 0.9 | 1.7 | 0.00 | 0.06 | 0.00 | 99 | 1012.0 |
| 20260510090523 | 50 | 137 | 0.9 | 1.7 | 0.00 | 0.06 | 0.00 | 99 | 1011.9 |
| 20260510090017 | 50 | 205 | 0.9 | 2.6 | 0.00 | 0.06 | 0.00 | 99 | 1012.0 |
| 20260510085517 | 50 | 135 | 1.7 | 3.5 | 0.00 | 0.06 | 0.00 | 99 | 1011.9 |
| 20260510085017 | 49 | 258 | 0.9 | 1.7 | 0.00 | 0.06 | 0.00 | 99 | 1012.0 |
| 20260510084518 | 49 | 154 | 0.9 | 2.6 | 0.00 | 0.06 | 0.00 | 99 | 1011.9 |
| 20260510084017 | 49 | 160 | 1.7 | 3.5 | 0.00 | 0.06 | 0.00 | 99 | 1011.7 |
| 20260510083558 | 48 | 236 | 1.7 | 2.6 | 0.00 | 0.06 | 0.00 | 99 | 1012.0 |
| 20260510083018 | 48 | 171 | 0.9 | 2.6 | 0.00 | 0.06 | 0.00 | 99 | 1011.8 |
| 20260510082518 | 48 | 297 | 0.9 | 1.7 | 0.00 | 0.06 | 0.00 | 99 | 1011.7 |
| 20260510082018 | 48 | 138 | 0.9 | 0.9 | 0.00 | 0.06 | 0.00 | 99 | 1011.4 |
| 20260510081538 | 48 | 173 | 0.0 | 0.9 | 0.00 | 0.06 | 0.00 | 99 | 1011.3 |
| 20260510081038 | 48 | 129 | 0.9 | 1.7 | 0.00 | 0.06 | 0.00 | 99 | 1011.3 |
| 20260510080518 | 48 | 147 | 0.9 | 1.7 | 0.00 | 0.06 | 0.00 | 99 | 1011.3 |
| 20260510080018 | 48 | 162 | 0.9 | 0.9 | 0.00 | 0.06 | 0.00 | 99 | 1011.3 |
| 20260510075518 | 48 | 121 | 0.9 | 1.7 | 0.00 | 0.06 | 0.00 | 99 | 1011.3 |
| 20260510075018 | 48 | 145 | 0.9 | 1.7 | 0.00 | 0.06 | 0.00 | 99 | 1011.2 |
| 20260510074519 | 48 | 213 | 0.9 | 1.7 | 0.00 | 0.06 | 0.00 | 99 | 1011.2 |
| 20260510074018 | 48 | 192 | 0.9 | 1.7 | 0.00 | 0.06 | 0.00 | 99 | 1011.3 |
| 20260510073518 | 48 | 191 | 0.9 | 1.7 | 0.00 | 0.06 | 0.00 | 99 | 1011.3 |
| 20260510073018 | 48 | 160 | 0.0 | 0.9 | 0.00 | 0.06 | 0.00 | 99 | 1011.2 |
| 20260510072518 | 48 | 232 | 0.9 | 1.7 | 0.00 | 0.06 | 0.00 | 99 | 1011.2 |
| 20260510072039 | 48 | 203 | 0.9 | 1.7 | 0.00 | 0.06 | 0.00 | 99 | 1011.2 |
| 20260510071559 | 48 | 169 | 0.9 | 1.7 | 0.00 | 0.06 | 0.00 | 99 | 1011.2 |
| 20260510071019 | 48 | 250 | 0.9 | 2.6 | 0.00 | 0.06 | 0.00 | 99 | 1011.2 |
| 20260510070518 | 48 | 264 | 0.9 | 3.5 | 0.00 | 0.06 | 0.00 | 99 | 1011.2 |
| 20260510070016 | 48 | 275 | 0.0 | 0.9 | 0.00 | 0.06 | 0.00 | 99 | 1011.1 |
| 20260510065516 | 48 | 133 | 0.9 | 1.7 | 0.00 | 0.06 | 0.00 | 99 | 1011.0 |
| 20260510065016 | 48 | 138 | 0.9 | 1.7 | 0.00 | 0.06 | 0.00 | 99 | 1011.0 |
| 20260510064540 | 48 | 159 | 0.9 | 0.9 | 0.00 | 0.06 | 0.00 | 99 | 1011.0 |
| 20260510064059 | 48 | 165 | 0.0 | 0.9 | 0.00 | 0.06 | 0.00 | 99 | 1010.8 |
| 20260510063520 | 48 | 129 | 0.9 | 1.7 | 0.00 | 0.06 | 0.00 | 99 | 1010.7 |
| 20260510063017 | 48 | 134 | 0.9 | 1.7 | 0.00 | 0.06 | 0.00 | 99 | 1010.7 |
| 20260510062537 | 48 | 139 | 0.9 | 0.9 | 0.00 | 0.06 | 0.00 | 99 | 1010.8 |
| 20260510062017 | 48 | 147 | 0.0 | 0.9 | 0.00 | 0.06 | 0.00 | 99 | 1010.9 |
| 20260510061517 | 48 | 133 | 0.9 | 1.7 | 0.00 | 0.06 | 0.00 | 99 | 1010.8 |
| 20260510061017 | 48 | 131 | 0.9 | 0.9 | 0.00 | 0.06 | 0.00 | 99 | 1010.8 |
| 20260510060517 | 48 | 128 | 0.9 | 1.7 | 0.00 | 0.06 | 0.00 | 99 | 1010.9 |
| 20260510060038 | 48 | 138 | 0.0 | 0.9 | 0.00 | 0.06 | 0.00 | 99 | 1010.9 |
| 20260510055520 | 48 | 136 | 0.9 | 0.9 | 0.00 | 0.06 | 0.00 | 99 | 1010.9 |
| 20260510055020 | 49 | 135 | 0.9 | 1.7 | 0.00 | 0.06 | 0.00 | 99 | 1010.9 |
| 20260510054517 | 49 | 132 | 0.9 | 0.9 | 0.00 | 0.06 | 0.00 | 99 | 1010.9 |
| 20260510054017 | 49 | 157 | 0.9 | 0.9 | 0.00 | 0.06 | 0.00 | 99 | 1011.0 |
| 20260510053517 | 49 | 156 | 0.0 | 0.9 | 0.00 | 0.06 | 0.00 | 99 | 1011.1 |
| 20260510053018 | 49 | 137 | 0.9 | 1.7 | 0.00 | 0.06 | 0.00 | 99 | 1011.1 |
| 20260510052517 | 49 | 122 | 0.9 | 1.7 | 0.00 | 0.06 | 0.00 | 99 | 1011.1 |
| 20260510052037 | 49 | 133 | 0.9 | 1.7 | 0.00 | 0.06 | 0.00 | 99 | 1011.1 |
| 20260510051518 | 49 | 152 | 0.9 | 0.9 | 0.00 | 0.06 | 0.00 | 99 | 1011.2 |
| 20260510051018 | 49 | 136 | 0.9 | 1.7 | 0.00 | 0.06 | 0.00 | 99 | 1011.2 |
| 20260510050558 | 49 | 138 | 0.0 | 0.9 | 0.00 | 0.06 | 0.00 | 99 | 1011.3 |
| 20260510050018 | 49 | 125 | 0.0 | 0.9 | 0.00 | 0.06 | 0.00 | 99 | 1011.2 |
| 20260510045558 | 49 | 151 | 0.0 | 0.9 | 0.00 | 0.06 | 0.00 | 99 | 1011.2 |
| 20260510045038 | 49 | 141 | 0.0 | 0.9 | 0.00 | 0.06 | 0.00 | 99 | 1011.3 |
| 20260510044518 | 49 | 155 | 0.9 | 0.9 | 0.00 | 0.06 | 0.00 | 99 | 1011.3 |
| 20260510044018 | 49 | 145 | 0.9 | 1.7 | 0.00 | 0.06 | 0.00 | 99 | 1011.3 |
| 20260510043518 | 49 | 130 | 0.9 | 1.7 | 0.00 | 0.06 | 0.00 | 99 | 1011.3 |
| 20260510043018 | 49 | 149 | 0.0 | 0.9 | 0.00 | 0.06 | 0.00 | 99 | 1011.3 |
| 20260510042518 | 49 | 160 | 0.0 | 0.9 | 0.00 | 0.06 | 0.00 | 99 | 1011.3 |
| 20260510042019 | 49 | 153 | 0.9 | 1.7 | 0.00 | 0.06 | 0.00 | 99 | 1011.3 |
| 20260510041518 | 48 | 153 | 0.0 | 0.9 | 0.00 | 0.06 | 0.00 | 99 | 1011.3 |
| 20260510041018 | 48 | 148 | 0.0 | 0.9 | 0.00 | 0.06 | 0.00 | 99 | 1011.3 |
| 20260510040516 | 48 | 149 | 0.0 | 0.9 | 0.00 | 0.06 | 0.00 | 99 | 1011.3 |
| 20260510040016 | 48 | 129 | 0.0 | 0.9 | 0.00 | 0.06 | 0.00 | 99 | 1011.3 |
| 20260510035519 | 48 | 132 | 0.9 | 0.9 | 0.00 | 0.06 | 0.06 | 99 | 1011.3 |
| 20260510035019 | 48 | 142 | 0.0 | 0.9 | 0.00 | 0.06 | 0.06 | 99 | 1011.3 |
| 20260510034519 | 48 | 146 | 0.0 | 0.9 | 0.00 | 0.06 | 0.06 | 99 | 1011.2 |
| 20260510034019 | 48 | 139 | 0.0 | 0.9 | 0.00 | 0.06 | 0.06 | 99 | 1011.2 |
| 20260510033540 | 48 | 140 | 0.9 | 1.7 | 0.00 | 0.06 | 0.06 | 99 | 1011.1 |
| 20260510033017 | 48 | 144 | 0.9 | 1.7 | 0.00 | 0.06 | 0.06 | 99 | 1011.0 |
| 20260510032520 | 48 | 115 | 0.9 | 0.9 | 0.00 | 0.06 | 0.06 | 99 | 1011.0 |
| 20260510032016 | 48 | 132 | 0.0 | 0.9 | 0.00 | 0.06 | 0.06 | 99 | 1011.0 |
| 20260510031557 | 48 | 126 | 0.9 | 1.7 | 0.00 | 0.06 | 0.06 | 100 | 1011.1 |
| 20260510031037 | 48 | 139 | 0.9 | 1.7 | 0.00 | 0.06 | 0.06 | 100 | 1011.0 |
| 20260510030517 | 48 | 138 | 0.0 | 0.9 | 0.00 | 0.06 | 0.06 | 100 | 1011.0 |
| 20260510030017 | 48 | 114 | 0.0 | 0.9 | 0.00 | 0.06 | 0.06 | 100 | 1010.9 |
| 20260510025520 | 48 | 129 | 0.0 | 0.9 | 0.00 | 0.06 | 0.06 | 100 | 1010.9 |
| 20260510025020 | 49 | 141 | 0.0 | 0.9 | 0.00 | 0.06 | 0.06 | 100 | 1010.9 |
| 20260510024540 | 49 | 126 | 0.9 | 0.9 | 0.00 | 0.06 | 0.06 | 100 | 1010.8 |
| 20260510024018 | 49 | 132 | 0.9 | 1.7 | 0.00 | 0.06 | 0.06 | 100 | 1010.8 |
| 20260510023517 | 48 | 133 | 0.9 | 1.7 | 0.00 | 0.06 | 0.06 | 100 | 1010.8 |
| 20260510023018 | 48 | 138 | 0.0 | 0.9 | 0.00 | 0.06 | 0.06 | 100 | 1010.8 |
| 20260510022537 | 48 | 114 | 0.9 | 0.9 | 0.00 | 0.06 | 0.06 | 100 | 1010.8 |
| 20260510022017 | 48 | 123 | 0.9 | 1.7 | 0.00 | 0.06 | 0.06 | 99 | 1010.9 |
| 20260510021518 | 48 | 161 | 0.0 | 0.9 | 0.00 | 0.06 | 0.06 | 99 | 1010.8 |
| 20260510021018 | 49 | 140 | 0.0 | 0.9 | 0.00 | 0.06 | 0.06 | 99 | 1010.8 |
| 20260510020518 | 49 | 131 | 0.9 | 0.9 | 0.00 | 0.06 | 0.06 | 99 | 1010.8 |
| 20260510020118 | 49 | 129 | 0.9 | 0.9 | 0.00 | 0.06 | 0.06 | 99 | 1010.8 |
| 20260510015518 | 49 | 102 | 0.0 | 0.9 | 0.00 | 0.06 | 0.06 | 99 | 1010.9 |
| 20260510015018 | 49 | 141 | 0.0 | 0.9 | 0.00 | 0.06 | 0.06 | 99 | 1010.9 |
| 20260510014518 | 50 | 154 | 0.0 | 0.9 | 0.00 | 0.06 | 0.06 | 99 | 1010.9 |
| 20260510014018 | 50 | 112 | 0.9 | 0.9 | 0.00 | 0.06 | 0.06 | 99 | 1010.9 |
| 20260510013518 | 50 | 122 | 0.9 | 1.7 | 0.00 | 0.06 | 0.06 | 99 | 1010.9 |
| 20260510013019 | 50 | 137 | 0.9 | 1.7 | 0.00 | 0.06 | 0.06 | 99 | 1010.9 |
| 20260510012539 | 50 | 120 | 0.0 | 0.9 | 0.00 | 0.06 | 0.06 | 99 | 1010.8 |
| 20260510012018 | 50 | 128 | 0.0 | 0.9 | 0.00 | 0.06 | 0.06 | 99 | 1010.8 |
| 20260510011539 | 50 | 128 | 0.9 | 1.7 | 0.00 | 0.06 | 0.06 | 99 | 1010.7 |
| 20260510011036 | 51 | 129 | 0.9 | 1.7 | 0.00 | 0.06 | 0.06 | 99 | 1010.7 |
| 20260510010516 | 51 | 137 | 0.9 | 1.7 | 0.00 | 0.06 | 0.06 | 99 | 1010.6 |
| 20260510010016 | 51 | 160 | 0.0 | 0.9 | 0.00 | 0.06 | 0.06 | 98 | 1010.6 |
| 20260510005519 | 51 | 133 | 0.9 | 0.9 | 0.00 | 0.06 | 0.06 | 98 | 1010.5 |
| 20260510005019 | 51 | 154 | 0.0 | 0.9 | 0.00 | 0.06 | 0.06 | 98 | 1010.5 |
| 20260510004519 | 52 | 107 | 0.9 | 1.7 | 0.00 | 0.06 | 0.06 | 98 | 1010.4 |
| 20260510004020 | 52 | 125 | 0.9 | 1.7 | 0.00 | 0.06 | 0.06 | 98 | 1010.3 |
| 20260510003519 | 52 | 129 | 0.9 | 1.7 | 0.00 | 0.06 | 0.06 | 98 | 1010.2 |
| 20260510003037 | 52 | 130 | 0.9 | 1.7 | 0.00 | 0.06 | 0.06 | 98 | 1010.3 |
| 20260510002517 | 53 | 127 | 0.9 | 1.7 | 0.00 | 0.06 | 0.06 | 98 | 1010.3 |
| 20260510002117 | 53 | 134 | 0.9 | 1.7 | 0.00 | 0.06 | 0.06 | 97 | 1010.3 |
| 20260510001537 | 53 | 115 | 0.9 | 1.7 | 0.00 | 0.06 | 0.06 | 97 | 1010.3 |
| 20260510001017 | 53 | 116 | 0.9 | 1.7 | 0.00 | 0.06 | 0.06 | 97 | 1010.3 |
| 20260510000517 | 54 | 137 | 0.9 | 0.9 | 0.00 | 0.06 | 0.06 | 97 | 1010.3 |
| 20260510000017 | 54 | 136 | 0.9 | 0.9 | 0.00 | 0.06 | 0.06 | 96 | 1010.2 |
| 20260509235520 | 54 | 122 | 0.9 | 1.7 | 0.00 | 0.06 | 0.06 | 96 | 1010.2 |
| 20260509235020 | 54 | 133 | 0.0 | 0.9 | 0.00 | 0.06 | 0.06 | 96 | 1010.3 |
| 20260509234520 | 55 | 171 | 0.0 | 2.6 | 0.00 | 0.06 | 0.06 | 96 | 1010.3 |
| 20260509234017 | 55 | 165 | 0.0 | 0.9 | 0.00 | 0.06 | 0.06 | 95 | 1010.2 |
| 20260509233517 | 55 | 139 | 0.9 | 0.9 | 0.00 | 0.06 | 0.06 | 95 | 1010.3 |
| 20260509233037 | 55 | 132 | 0.0 | 0.9 | 0.00 | 0.06 | 0.06 | 95 | 1010.4 |
| 20260509232537 | 56 | 177 | 0.0 | 0.9 | 0.00 | 0.06 | 0.06 | 95 | 1010.3 |
| 20260509232018 | 56 | 158 | 0.0 | 0.9 | 0.00 | 0.06 | 0.06 | 95 | 1010.3 |
| 20260509231518 | 56 | 169 | 0.0 | 0.9 | 0.00 | 0.06 | 0.06 | 94 | 1010.3 |
| 20260509231018 | 57 | 161 | 0.0 | 0.9 | 0.00 | 0.06 | 0.06 | 93 | 1010.3 |
| 20260509230518 | 57 | 173 | 0.0 | 0.9 | 0.00 | 0.06 | 0.06 | 93 | 1010.3 |
| 20260509230038 | 57 | 185 | 0.9 | 0.9 | 0.00 | 0.06 | 0.06 | 93 | 1010.3 |
| 20260509225518 | 57 | 117 | 0.9 | 2.6 | 0.00 | 0.06 | 0.06 | 94 | 1010.3 |
| 20260509225018 | 57 | 177 | 0.0 | 0.9 | 0.00 | 0.06 | 0.06 | 94 | 1010.3 |
| 20260509224518 | 56 | 275 | 0.9 | 1.7 | 0.00 | 0.06 | 0.06 | 95 | 1010.4 |
| 20260509224039 | 56 | 172 | 0.9 | 1.7 | 0.00 | 0.06 | 0.06 | 95 | 1010.3 |
| 20260509223519 | 56 | 119 | 0.9 | 2.6 | 0.00 | 0.06 | 0.06 | 95 | 1010.2 |
| 20260509223039 | 56 | 171 | 0.9 | 1.7 | 0.00 | 0.06 | 0.06 | 95 | 1010.2 |
| 20260509222518 | 56 | 163 | 0.9 | 1.7 | 0.00 | 0.06 | 0.06 | 95 | 1010.2 |
| 20260509222018 | 56 | 140 | 1.7 | 4.3 | 0.00 | 0.06 | 0.06 | 95 | 1010.3 |
| 20260509221519 | 56 | 148 | 0.9 | 2.6 | 0.01 | 0.06 | 0.06 | 95 | 1010.3 |
| 20260509221016 | 56 | 129 | 0.9 | 2.6 | 0.02 | 0.06 | 0.06 | 95 | 1010.4 |
| 20260509220516 | 56 | 132 | 1.7 | 3.5 | 0.03 | 0.06 | 0.06 | 95 | 1010.5 |
| 20260509220036 | 56 | 106 | 0.9 | 2.6 | 0.04 | 0.06 | 0.06 | 95 | 1010.5 |
| 20260509215519 | 56 | 143 | 1.7 | 2.6 | 0.05 | 0.06 | 0.06 | 95 | 1010.6 |
| 20260509215019 | 56 | 147 | 0.9 | 2.6 | 0.06 | 0.06 | 0.06 | 95 | 1010.6 |
| 20260509214519 | 56 | 170 | 1.7 | 3.5 | 0.06 | 0.06 | 0.06 | 95 | 1010.6 |
| 20260509214019 | 56 | 173 | 1.7 | 3.5 | 0.06 | 0.06 | 0.06 | 96 | 1010.6 |
| 20260509213517 | 56 | 156 | 0.9 | 2.6 | 0.06 | 0.06 | 0.06 | 96 | 1010.7 |
| 20260509213036 | 56 | 162 | 1.7 | 2.6 | 0.06 | 0.06 | 0.06 | 96 | 1010.7 |
| 20260509212517 | 56 | 125 | 0.9 | 2.6 | 0.06 | 0.06 | 0.06 | 95 | 1010.6 |
| 20260509212017 | 56 | 111 | 1.7 | 1.7 | 0.06 | 0.06 | 0.06 | 95 | 1010.8 |
| 20260509211517 | 56 | 185 | 0.9 | 1.7 | 0.05 | 0.05 | 0.05 | 93 | 1010.8 |
| 20260509211037 | 56 | 245 | 0.9 | 1.7 | 0.04 | 0.04 | 0.04 | 93 | 1010.4 |
| 20260509210517 | 56 | 122 | 0.9 | 1.7 | 0.02 | 0.03 | 0.03 | 91 | 1010.5 |
| 20260509210017 | 57 | 126 | 0.9 | 2.6 | 0.02 | 0.02 | 0.02 | 90 | 1010.5 |
| 20260509205520 | 57 | 207 | 0.9 | 1.7 | 0.01 | 0.01 | 0.01 | 90 | 1010.7 |